首页
METAR-TAF:

METAR-TAF

机场 :

倫敦盧頓機場

卢顿, 英格兰

纬度: 51-52N, 经度: 000-22W, 海拔: 160米

当前天气观测

该预报发布于35分钟前的07:20 UTC
风速5节,风向西转西北
温度 7°C
湿度 76%
气压 1016 hPa
能见度10公里或以上
阴天层高于4600英尺

METAR: EGGW 030720Z AUTO 29005KT 9999 OVC046 07/03 Q1016

时间: 08:55 (07:55 UTC)

预报

该预报发布于3小时和1分钟前的04:54 UTC
预报有效从03日的 06点(UTC)到 04日的 06点(UTC)
风速6节,风向西
能见度10公里或以上
散云层高于4500英尺
几率 40% :
短暂存在
从 04日的 01点(UTC)到 04日的 06点(UTC)
能見度: 8000

TAF: EGGW 030454Z 0306/0406 28006KT 9999 SCT045 PROB40 TEMPO 0401/0406 8000

超过4000个机场的气象观测和天气预报(METAR&TAF报告)。

可查询的气象台以黄色和红色小点在地图上表示。

将鼠标移到小点上方,可查看气象台名称。

然后点击查看天气观测和预报。

如需切换地图:点击带黑十字的绿色按钮放大地图;点击带横线的绿色按钮缩小地图;或者点击绿色箭头查看邻近地区的地图。


METAR-TAF: